createdAt,value
2022-10-31T00:00:01.205Z,1018.21
2022-10-31T00:01:01.101Z,1018.21
2022-10-31T00:02:01.164Z,1018.2
2022-10-31T00:03:01.513Z,1018.17
2022-10-31T00:04:01.926Z,1018.19
2022-10-31T00:05:01.412Z,1018.2
2022-10-31T00:06:01.987Z,1018.21
2022-10-31T00:07:01.480Z,1018.18
2022-10-31T00:08:01.060Z,1018.18
2022-10-31T00:09:00.718Z,1018.21
2022-10-31T00:10:01.061Z,1018.21
2022-10-31T00:11:01.277Z,1018.19
2022-10-31T00:12:01.861Z,1018.19
2022-10-31T00:13:02.299Z,1018.2
2022-10-31T00:14:01.178Z,1018.2
2022-10-31T00:15:01.926Z,1018.18
2022-10-31T00:16:01.107Z,1018.22
2022-10-31T00:17:01.194Z,1018.28
2022-10-31T00:18:01.569Z,1018.22
2022-10-31T00:19:01.209Z,1018.21
2022-10-31T00:20:01.511Z,1018.22
2022-10-31T00:21:01.134Z,1018.24
2022-10-31T00:22:01.130Z,1018.2
2022-10-31T00:23:01.136Z,1018.23
2022-10-31T00:24:01.137Z,1018.23
2022-10-31T00:25:01.118Z,1018.22
2022-10-31T00:26:02.006Z,1018.23
2022-10-31T00:27:01.605Z,1018.25
2022-10-31T00:28:01.512Z,1018.24
2022-10-31T00:29:01.264Z,1018.25
2022-10-31T00:30:01.949Z,1018.27
2022-10-31T00:31:02.620Z,1018.27
2022-10-31T00:32:00.589Z,1018.27
2022-10-31T00:33:00.511Z,1018.25
2022-10-31T00:34:00.479Z,1018.29
2022-10-31T00:35:00.258Z,1018.32
2022-10-31T00:35:59.806Z,1018.29
2022-10-31T00:37:02.210Z,1018.31
2022-10-31T00:38:01.834Z,1018.32
2022-10-31T00:39:01.129Z,1018.31
2022-10-31T00:40:01.776Z,1018.32
2022-10-31T00:41:01.152Z,1018.31
2022-10-31T00:42:01.142Z,1018.28
2022-10-31T00:43:01.470Z,1018.35
2022-10-31T00:44:02.292Z,1018.34
2022-10-31T00:45:01.074Z,1018.39
2022-10-31T00:46:01.548Z,1018.38
2022-10-31T00:47:01.044Z,1018.34
2022-10-31T00:48:01.475Z,1018.34
2022-10-31T00:49:01.099Z,1018.39
2022-10-31T00:50:01.107Z,1018.37
2022-10-31T00:51:04.892Z,1018.4
2022-10-31T00:52:01.775Z,1018.4
2022-10-31T00:53:01.132Z,1018.39
2022-10-31T00:54:00.916Z,1018.43
2022-10-31T00:55:01.134Z,1018.42
2022-10-31T00:56:06.439Z,1018.44
2022-10-31T00:57:01.541Z,1018.43
2022-10-31T00:58:01.583Z,1018.42
2022-10-31T00:59:01.830Z,1018.43
2022-10-31T01:00:00.543Z,1018.41
2022-10-31T01:01:07.720Z,1018.44
2022-10-31T01:02:01.247Z,1018.39
2022-10-31T01:03:02.290Z,1018.39
2022-10-31T01:04:01.232Z,1018.37
2022-10-31T01:05:01.854Z,1018.4
2022-10-31T01:06:10.539Z,1018.45
2022-10-31T01:07:01.168Z,1018.41
2022-10-31T01:08:01.502Z,1018.39
2022-10-31T01:09:01.510Z,1018.41
2022-10-31T01:10:01.611Z,1018.41
2022-10-31T01:11:12.926Z,1018.42
2022-10-31T01:12:01.850Z,1018.39
2022-10-31T01:13:01.498Z,1018.42
2022-10-31T01:14:01.049Z,1018.36
2022-10-31T01:15:01.074Z,1018.39
2022-10-31T01:16:16.826Z,1018.38
2022-10-31T01:17:01.460Z,1018.35
2022-10-31T01:18:02.443Z,1018.41
2022-10-31T01:19:01.487Z,1018.42
2022-10-31T01:20:01.223Z,1018.42
2022-10-31T01:21:02.067Z,1018.43
2022-10-31T01:22:01.103Z,1018.41
2022-10-31T01:23:01.115Z,1018.41
2022-10-31T01:24:01.144Z,1018.43
2022-10-31T01:25:01.544Z,1018.48
2022-10-31T01:26:01.130Z,1018.46
2022-10-31T01:27:01.147Z,1018.42
2022-10-31T01:28:02.008Z,1018.44
2022-10-31T01:29:02.267Z,1018.44
2022-10-31T01:30:01.303Z,1018.4
2022-10-31T01:31:01.968Z,1018.41
2022-10-31T01:32:01.066Z,1018.42
2022-10-31T01:33:01.776Z,1018.41
2022-10-31T01:34:01.459Z,1018.41
2022-10-31T01:35:01.085Z,1018.4
2022-10-31T01:36:01.804Z,1018.39
2022-10-31T01:37:01.390Z,1018.37
2022-10-31T01:38:01.194Z,1018.34
2022-10-31T01:39:01.109Z,1018.41
2022-10-31T01:40:00.971Z,1018.43
2022-10-31T01:41:00.601Z,1018.41
2022-10-31T01:42:00.242Z,1018.41
2022-10-31T01:43:00.028Z,1018.4
2022-10-31T01:44:00.010Z,1018.45
2022-10-31T01:44:59.705Z,1018.46
2022-10-31T01:46:01.336Z,1018.43
2022-10-31T01:47:01.159Z,1018.47
2022-10-31T01:48:01.604Z,1018.48
2022-10-31T01:49:01.476Z,1018.45
2022-10-31T01:50:02.707Z,1018.46
2022-10-31T01:51:01.086Z,1018.42
2022-10-31T01:52:01.744Z,1018.39
2022-10-31T01:53:01.086Z,1018.43
2022-10-31T01:54:01.101Z,1018.42
2022-10-31T01:55:01.135Z,1018.44
2022-10-31T01:56:01.115Z,1018.43
2022-10-31T01:57:01.358Z,1018.39
2022-10-31T01:58:02.658Z,1018.42
2022-10-31T01:59:04.322Z,1018.46
2022-10-31T02:00:01.045Z,1018.39
2022-10-31T02:01:04.859Z,1018.4
2022-10-31T02:02:01.322Z,1018.41
2022-10-31T02:03:01.471Z,1018.36
2022-10-31T02:04:02.599Z,1018.4
2022-10-31T02:05:01.445Z,1018.42
2022-10-31T02:06:03.773Z,1018.42
2022-10-31T02:07:02.021Z,1018.43
2022-10-31T02:08:01.926Z,1018.46
2022-10-31T02:09:01.087Z,1018.45
2022-10-31T02:10:01.231Z,1018.46
2022-10-31T02:11:01.384Z,1018.47
2022-10-31T02:12:01.132Z,1018.47
2022-10-31T02:13:02.242Z,1018.44
2022-10-31T02:14:01.165Z,1018.48
2022-10-31T02:15:01.134Z,1018.47
2022-10-31T02:16:01.151Z,1018.49
2022-10-31T02:17:01.550Z,1018.47
2022-10-31T02:18:02.430Z,1018.49
2022-10-31T02:19:01.852Z,1018.49
2022-10-31T02:20:01.335Z,1018.5
2022-10-31T02:21:01.064Z,1018.54
2022-10-31T02:22:00.661Z,1018.5
2022-10-31T02:23:00.372Z,1018.49
2022-10-31T02:23:59.982Z,1018.49
2022-10-31T02:24:59.717Z,1018.48
2022-10-31T02:26:01.502Z,1018.5
2022-10-31T02:27:02.639Z,1018.51
2022-10-31T02:28:01.712Z,1018.51
2022-10-31T02:29:01.199Z,1018.57
2022-10-31T02:30:01.125Z,1018.54
2022-10-31T02:31:01.132Z,1018.55
2022-10-31T02:32:03.846Z,1018.55
2022-10-31T02:33:01.478Z,1018.55
2022-10-31T02:34:01.724Z,1018.53
2022-10-31T02:35:01.732Z,1018.57
2022-10-31T02:36:02.437Z,1018.56
2022-10-31T02:37:06.627Z,1018.57
2022-10-31T02:38:01.075Z,1018.6
2022-10-31T02:39:01.182Z,1018.57
2022-10-31T02:40:01.190Z,1018.63
2022-10-31T02:41:01.055Z,1018.61
2022-10-31T02:42:09.335Z,1018.58
2022-10-31T02:43:01.351Z,1018.68
2022-10-31T02:44:00.912Z,1018.68
2022-10-31T02:45:01.044Z,1018.68
2022-10-31T02:46:01.127Z,1018.62
2022-10-31T02:47:11.173Z,1018.63
2022-10-31T02:48:01.919Z,1018.65
2022-10-31T02:49:02.161Z,1018.68
2022-10-31T02:50:02.259Z,1018.71
2022-10-31T02:51:01.059Z,1018.74
2022-10-31T02:52:14.031Z,1018.7
2022-10-31T02:53:01.070Z,1018.72
2022-10-31T02:54:01.075Z,1018.74
2022-10-31T02:55:01.080Z,1018.72
2022-10-31T02:56:01.087Z,1018.74
2022-10-31T02:57:16.980Z,1018.76
2022-10-31T02:58:02.916Z,1018.76
2022-10-31T02:59:01.123Z,1018.73
2022-10-31T03:00:01.960Z,1018.75
2022-10-31T03:01:01.222Z,1018.77
2022-10-31T03:02:02.033Z,1018.75
2022-10-31T03:03:01.580Z,1018.74
2022-10-31T03:04:01.863Z,1018.73
2022-10-31T03:05:01.143Z,1018.74
2022-10-31T03:06:01.440Z,1018.75
2022-10-31T03:07:01.480Z,1018.81
2022-10-31T03:08:01.112Z,1018.8
2022-10-31T03:09:03.776Z,1018.8
2022-10-31T03:10:01.091Z,1018.82
2022-10-31T03:11:01.095Z,1018.82
2022-10-31T03:12:01.283Z,1018.81
2022-10-31T03:13:02.008Z,1018.81
2022-10-31T03:14:02.190Z,1018.85
2022-10-31T03:15:02.043Z,1018.82
2022-10-31T03:16:01.112Z,1018.86
2022-10-31T03:17:01.139Z,1018.9
2022-10-31T03:18:01.583Z,1018.86
2022-10-31T03:19:01.130Z,1018.86
2022-10-31T03:20:01.147Z,1018.88
2022-10-31T03:21:01.062Z,1018.83
2022-10-31T03:22:01.077Z,1018.88
2022-10-31T03:23:02.082Z,1018.85
2022-10-31T03:24:01.206Z,1018.87
2022-10-31T03:25:02.228Z,1018.89
2022-10-31T03:26:01.943Z,1018.9
2022-10-31T03:27:00.577Z,1018.92
2022-10-31T03:28:00.721Z,1018.92
2022-10-31T03:29:01.295Z,1018.92
2022-10-31T03:30:01.047Z,1018.93
2022-10-31T03:31:03.437Z,1018.9
2022-10-31T03:32:01.503Z,1018.93
2022-10-31T03:33:01.396Z,1018.91
2022-10-31T03:34:01.149Z,1018.91
2022-10-31T03:35:00.725Z,1018.97
2022-10-31T03:36:00.326Z,1018.93
2022-10-31T03:36:59.909Z,1018.94
2022-10-31T03:38:00.911Z,1018.98
2022-10-31T03:39:01.060Z,1018.96
2022-10-31T03:40:01.390Z,1018.94
2022-10-31T03:41:01.398Z,1018.98
2022-10-31T03:42:02.089Z,1018.96
2022-10-31T03:43:02.542Z,1019.01
2022-10-31T03:44:01.180Z,1019.01
2022-10-31T03:45:02.450Z,1018.99
2022-10-31T03:46:01.123Z,1019.02
2022-10-31T03:47:01.191Z,1019.07
2022-10-31T03:48:01.898Z,1019.07
2022-10-31T03:49:01.039Z,1019.08
2022-10-31T03:50:01.056Z,1019.1
2022-10-31T03:51:01.155Z,1019.1
2022-10-31T03:52:01.147Z,1019.11
2022-10-31T03:53:01.234Z,1019.09
2022-10-31T03:54:01.256Z,1019.09
2022-10-31T03:55:01.090Z,1019.1
2022-10-31T03:56:00.879Z,1019.16
2022-10-31T03:57:01.080Z,1019.1
2022-10-31T03:58:01.532Z,1019.11
2022-10-31T03:59:01.196Z,1019.11
2022-10-31T04:00:01.097Z,1019.09
2022-10-31T04:01:01.416Z,1019.1
2022-10-31T04:02:01.715Z,1019.11
2022-10-31T04:03:01.677Z,1019.14
2022-10-31T04:04:02.198Z,1019.13
2022-10-31T04:05:01.258Z,1019.16
2022-10-31T04:06:01.866Z,1019.16
2022-10-31T04:07:01.299Z,1019.18
2022-10-31T04:08:01.662Z,1019.19
2022-10-31T04:09:02.707Z,1019.15
2022-10-31T04:10:01.089Z,1019.21
2022-10-31T04:11:01.074Z,1019.18
2022-10-31T04:12:03.837Z,1019.22
2022-10-31T04:13:03.770Z,1019.17
2022-10-31T04:14:01.113Z,1019.22
2022-10-31T04:15:01.126Z,1019.24
2022-10-31T04:16:01.063Z,1019.24
2022-10-31T04:17:01.311Z,1019.24
2022-10-31T04:18:07.469Z,1019.23
2022-10-31T04:19:01.330Z,1019.28
2022-10-31T04:20:02.036Z,1019.23
2022-10-31T04:21:02.039Z,1019.25
2022-10-31T04:22:01.433Z,1019.25
2022-10-31T04:23:14.672Z,1019.26
2022-10-31T04:24:02.177Z,1019.24
2022-10-31T04:25:01.553Z,1019.25
2022-10-31T04:26:01.318Z,1019.25
2022-10-31T04:27:01.939Z,1019.27
2022-10-31T04:28:14.069Z,1019.32
2022-10-31T04:29:01.052Z,1019.31
2022-10-31T04:30:01.069Z,1019.28
2022-10-31T04:31:01.115Z,1019.29
2022-10-31T04:32:01.045Z,1019.3
2022-10-31T04:33:16.268Z,1019.3
2022-10-31T04:34:01.319Z,1019.31
2022-10-31T04:35:01.323Z,1019.32
2022-10-31T04:36:01.944Z,1019.31
2022-10-31T04:37:00.838Z,1019.3
2022-10-31T04:38:02.711Z,1019.29
2022-10-31T04:39:01.956Z,1019.34
2022-10-31T04:40:01.460Z,1019.34
2022-10-31T04:41:01.173Z,1019.31
2022-10-31T04:42:01.369Z,1019.36
2022-10-31T04:43:02.374Z,1019.34
2022-10-31T04:44:01.096Z,1019.36
2022-10-31T04:45:01.107Z,1019.36
2022-10-31T04:46:01.112Z,1019.36
2022-10-31T04:47:03.975Z,1019.36
2022-10-31T04:48:01.445Z,1019.37
2022-10-31T04:49:01.118Z,1019.41
2022-10-31T04:50:01.130Z,1019.37
2022-10-31T04:51:01.144Z,1019.38
2022-10-31T04:52:01.531Z,1019.4
2022-10-31T04:53:01.254Z,1019.4
2022-10-31T04:54:01.141Z,1019.38
2022-10-31T04:55:01.861Z,1019.37
2022-10-31T04:56:01.082Z,1019.37
2022-10-31T04:57:01.174Z,1019.38
2022-10-31T04:58:01.407Z,1019.34
2022-10-31T04:59:01.448Z,1019.35
2022-10-31T05:00:01.095Z,1019.35
2022-10-31T05:01:01.879Z,1019.32
2022-10-31T05:02:01.461Z,1019.35
2022-10-31T05:03:01.548Z,1019.38
2022-10-31T05:04:01.128Z,1019.39
2022-10-31T05:05:01.784Z,1019.41
2022-10-31T05:06:01.429Z,1019.36
2022-10-31T05:07:01.195Z,1019.37
2022-10-31T05:08:01.126Z,1019.42
2022-10-31T05:09:01.136Z,1019.35
2022-10-31T05:10:01.318Z,1019.41
2022-10-31T05:11:04.191Z,1019.39
2022-10-31T05:12:01.283Z,1019.34
2022-10-31T05:13:02.856Z,1019.37
2022-10-31T05:14:01.084Z,1019.33
2022-10-31T05:15:01.097Z,1019.35
2022-10-31T05:16:02.667Z,1019.41
2022-10-31T05:17:01.086Z,1019.36
2022-10-31T05:18:01.422Z,1019.36
2022-10-31T05:19:01.424Z,1019.35
2022-10-31T05:20:02.057Z,1019.4
2022-10-31T05:21:02.463Z,1019.36
2022-10-31T05:22:01.572Z,1019.43
2022-10-31T05:23:01.943Z,1019.37
2022-10-31T05:24:01.649Z,1019.37
2022-10-31T05:25:01.240Z,1019.39
2022-10-31T05:26:01.175Z,1019.44
2022-10-31T05:27:01.161Z,1019.47
2022-10-31T05:28:02.574Z,1019.44
2022-10-31T05:29:01.250Z,1019.47
2022-10-31T05:30:01.273Z,1019.42
2022-10-31T05:31:02.117Z,1019.45
2022-10-31T05:32:01.160Z,1019.44
2022-10-31T05:33:01.506Z,1019.46
2022-10-31T05:34:01.276Z,1019.44
2022-10-31T05:35:01.062Z,1019.43
2022-10-31T05:36:01.175Z,1019.42
2022-10-31T05:37:01.655Z,1019.46
2022-10-31T05:38:01.795Z,1019.45
2022-10-31T05:39:01.652Z,1019.45
2022-10-31T05:40:07.036Z,1019.44
2022-10-31T05:41:01.332Z,1019.48
2022-10-31T05:42:02.056Z,1019.5
2022-10-31T05:43:02.351Z,1019.5
2022-10-31T05:44:01.307Z,1019.54
2022-10-31T05:45:02.734Z,1019.52
2022-10-31T05:46:01.170Z,1019.51
2022-10-31T05:47:01.458Z,1019.55
2022-10-31T05:48:01.408Z,1019.56
2022-10-31T05:49:03.409Z,1019.52
2022-10-31T05:50:01.131Z,1019.51
2022-10-31T05:51:01.106Z,1019.49
2022-10-31T05:52:01.067Z,1019.52
2022-10-31T05:53:01.212Z,1019.54
2022-10-31T05:54:05.303Z,1019.51
2022-10-31T05:55:01.778Z,1019.53
2022-10-31T05:56:02.050Z,1019.52
2022-10-31T05:57:02.184Z,1019.54
2022-10-31T05:58:01.507Z,1019.48
2022-10-31T05:59:09.225Z,1019.56
2022-10-31T06:00:01.411Z,1019.57
2022-10-31T06:01:01.061Z,1019.58
2022-10-31T06:02:01.069Z,1019.57
2022-10-31T06:03:01.199Z,1019.64
2022-10-31T06:04:10.771Z,1019.59
2022-10-31T06:05:01.934Z,1019.6
2022-10-31T06:06:01.307Z,1019.61
2022-10-31T06:07:01.102Z,1019.64
2022-10-31T06:08:01.559Z,1019.63
2022-10-31T06:09:15.009Z,1019.61
2022-10-31T06:10:02.512Z,1019.68
2022-10-31T06:11:01.158Z,1019.66
2022-10-31T06:12:01.135Z,1019.65
2022-10-31T06:13:01.142Z,1019.64
2022-10-31T06:14:16.519Z,1019.65
2022-10-31T06:15:02.228Z,1019.67
2022-10-31T06:16:01.178Z,1019.66
2022-10-31T06:17:01.179Z,1019.7
2022-10-31T06:18:01.776Z,1019.69
2022-10-31T06:19:01.078Z,1019.69
2022-10-31T06:20:01.081Z,1019.71
2022-10-31T06:21:01.228Z,1019.74
2022-10-31T06:22:01.905Z,1019.71
2022-10-31T06:23:02.471Z,1019.72
2022-10-31T06:24:01.515Z,1019.75
2022-10-31T06:25:01.177Z,1019.77
2022-10-31T06:26:01.604Z,1019.85
2022-10-31T06:27:01.313Z,1019.86
2022-10-31T06:28:01.120Z,1019.81
2022-10-31T06:29:03.980Z,1019.86
2022-10-31T06:30:01.405Z,1019.89
2022-10-31T06:31:02.604Z,1019.89
2022-10-31T06:32:01.549Z,1019.87
2022-10-31T06:33:01.595Z,1019.88
2022-10-31T06:34:04.129Z,1019.88
2022-10-31T06:35:03.010Z,1019.92
2022-10-31T06:36:01.149Z,1019.91
2022-10-31T06:37:01.216Z,1019.93
2022-10-31T06:38:02.253Z,1019.96
2022-10-31T06:39:01.863Z,1019.92
2022-10-31T06:40:01.079Z,1019.97
2022-10-31T06:41:01.236Z,1019.92
2022-10-31T06:42:01.108Z,1019.98
2022-10-31T06:43:00.884Z,1020.03
2022-10-31T06:44:05.031Z,1019.99
2022-10-31T06:45:01.001Z,1020
2022-10-31T06:46:01.557Z,1020
2022-10-31T06:47:01.387Z,1020.03
2022-10-31T06:48:16.541Z,1020.03
2022-10-31T06:49:01.086Z,1020.05
2022-10-31T06:50:01.204Z,1020.07
2022-10-31T06:51:01.094Z,1020.05
2022-10-31T06:52:01.144Z,1020.1
2022-10-31T06:53:01.202Z,1020.09
2022-10-31T06:54:00.989Z,1020.1
2022-10-31T06:55:00.619Z,1020.09
2022-10-31T06:56:00.744Z,1020.13
2022-10-31T06:57:00.769Z,1020.18
2022-10-31T06:58:02.993Z,1020.09
2022-10-31T06:59:01.514Z,1020.14
2022-10-31T07:00:01.070Z,1020.16
2022-10-31T07:01:01.930Z,1020.25
2022-10-31T07:02:02.308Z,1020.13
2022-10-31T07:03:01.460Z,1020.19
2022-10-31T07:04:02.038Z,1020.2
2022-10-31T07:05:01.454Z,1020.21
2022-10-31T07:06:01.699Z,1020.22
2022-10-31T07:07:01.682Z,1020.25
2022-10-31T07:08:02.281Z,1020.19
2022-10-31T07:09:01.760Z,1020.23
2022-10-31T07:10:01.225Z,1020.24
2022-10-31T07:11:02.001Z,1020.27
2022-10-31T07:12:02.065Z,1020.28
2022-10-31T07:13:01.504Z,1020.27
2022-10-31T07:14:01.890Z,1020.25
2022-10-31T07:15:02.480Z,1020.26
2022-10-31T07:16:01.457Z,1020.28
2022-10-31T07:17:02.355Z,1020.31
2022-10-31T07:18:00.964Z,1020.33
2022-10-31T07:19:01.846Z,1020.33
2022-10-31T07:20:00.875Z,1020.33
2022-10-31T07:21:01.072Z,1020.29
2022-10-31T07:22:01.260Z,1020.34
2022-10-31T07:23:01.207Z,1020.33
2022-10-31T07:24:01.303Z,1020.38
2022-10-31T07:25:02.004Z,1020.37
2022-10-31T07:26:00.576Z,1020.38
2022-10-31T07:28:00.346Z,1020.42
2022-10-31T07:29:00.338Z,1020.42
2022-10-31T07:29:59.990Z,1020.42
2022-10-31T07:30:59.686Z,1020.43
2022-10-31T07:32:01.319Z,1020.41
2022-10-31T07:33:01.131Z,1020.4
2022-10-31T07:34:01.178Z,1020.36
2022-10-31T07:35:00.746Z,1020.4
2022-10-31T07:36:00.436Z,1020.35
2022-10-31T07:37:00.023Z,1020.37
2022-10-31T07:37:59.937Z,1020.39
2022-10-31T07:38:59.725Z,1020.38
2022-10-31T07:40:03.311Z,1020.39
2022-10-31T07:41:01.776Z,1020.42
2022-10-31T07:42:01.092Z,1020.44
2022-10-31T07:43:00.788Z,1020.43
2022-10-31T07:44:00.411Z,1020.49
2022-10-31T07:45:04.787Z,1020.43
2022-10-31T07:46:01.133Z,1020.54
2022-10-31T07:47:01.457Z,1020.47
2022-10-31T07:48:01.773Z,1020.49
2022-10-31T07:49:01.737Z,1020.43
2022-10-31T07:50:07.865Z,1020.5
2022-10-31T07:51:01.425Z,1020.55
2022-10-31T07:52:02.659Z,1020.53
2022-10-31T07:53:01.190Z,1020.5
2022-10-31T07:54:02.311Z,1020.52
2022-10-31T07:55:09.722Z,1020.52
2022-10-31T07:56:01.027Z,1020.51
2022-10-31T07:57:01.121Z,1020.56
2022-10-31T07:58:02.454Z,1020.56
2022-10-31T07:59:01.308Z,1020.55
2022-10-31T08:00:11.494Z,1020.53
2022-10-31T08:01:02.269Z,1020.59
2022-10-31T08:02:02.138Z,1020.6
2022-10-31T08:03:01.950Z,1020.62
2022-10-31T08:04:01.143Z,1020.55
2022-10-31T08:05:12.051Z,1020.58
2022-10-31T08:06:00.615Z,1020.59
2022-10-31T08:07:00.320Z,1020.6
2022-10-31T08:08:00.430Z,1020.63
2022-10-31T08:09:00.323Z,1020.57
2022-10-31T08:10:14.792Z,1020.54
2022-10-31T08:11:01.257Z,1020.51
2022-10-31T08:12:01.235Z,1020.59
2022-10-31T08:13:01.222Z,1020.59
2022-10-31T08:14:01.110Z,1020.58
2022-10-31T08:15:01.275Z,1020.49
2022-10-31T08:16:01.106Z,1020.53
2022-10-31T08:17:01.118Z,1020.51
2022-10-31T08:18:01.513Z,1020.55
2022-10-31T08:19:01.118Z,1020.51
2022-10-31T08:20:01.132Z,1020.57
2022-10-31T08:21:01.517Z,1020.6
2022-10-31T08:22:01.148Z,1020.57
2022-10-31T08:23:00.879Z,1020.56
2022-10-31T08:24:01.175Z,1020.6
2022-10-31T08:25:01.160Z,1020.6
2022-10-31T08:26:01.340Z,1020.57
2022-10-31T08:27:01.363Z,1020.58
2022-10-31T08:28:01.794Z,1020.61
2022-10-31T08:29:02.020Z,1020.62
2022-10-31T08:30:01.228Z,1020.62
2022-10-31T08:31:01.243Z,1020.6
2022-10-31T08:32:01.111Z,1020.61
2022-10-31T08:33:01.167Z,1020.65
2022-10-31T08:34:01.141Z,1020.63
2022-10-31T08:35:01.839Z,1020.61
2022-10-31T08:36:01.215Z,1020.63
2022-10-31T08:37:01.192Z,1020.67
2022-10-31T08:38:04.429Z,1020.61
2022-10-31T08:39:02.260Z,1020.66
2022-10-31T08:40:01.733Z,1020.64
2022-10-31T08:41:01.367Z,1020.66
2022-10-31T08:42:01.060Z,1020.61
2022-10-31T08:43:01.102Z,1020.65
2022-10-31T08:44:01.112Z,1020.66
2022-10-31T08:45:01.059Z,1020.73
2022-10-31T08:46:01.471Z,1020.68
2022-10-31T08:47:01.205Z,1020.67
2022-10-31T08:48:01.636Z,1020.72
2022-10-31T08:49:01.133Z,1020.69
2022-10-31T08:50:01.126Z,1020.71
2022-10-31T08:51:01.123Z,1020.71
2022-10-31T08:52:01.133Z,1020.73
2022-10-31T08:53:05.343Z,1020.74
2022-10-31T08:54:01.660Z,1020.72
2022-10-31T08:55:01.465Z,1020.73
2022-10-31T08:56:01.488Z,1020.69
2022-10-31T08:57:01.701Z,1020.71
2022-10-31T08:58:02.487Z,1020.67
2022-10-31T08:59:02.703Z,1020.71
2022-10-31T09:00:01.837Z,1020.73
2022-10-31T09:01:02.751Z,1020.78
2022-10-31T09:02:01.267Z,1020.75
2022-10-31T09:03:01.132Z,1020.72
2022-10-31T09:04:00.952Z,1020.69
2022-10-31T09:05:01.511Z,1020.68
2022-10-31T09:06:02.326Z,1020.66
2022-10-31T09:07:20.313Z,1020.64
2022-10-31T09:08:01.892Z,1020.64
2022-10-31T09:09:01.054Z,1020.61
2022-10-31T09:10:01.181Z,1020.67
2022-10-31T09:11:01.159Z,1020.63
2022-10-31T09:12:01.072Z,1020.68
2022-10-31T09:13:01.062Z,1020.68
2022-10-31T09:14:01.459Z,1020.72
2022-10-31T09:15:01.082Z,1020.72
2022-10-31T09:16:01.075Z,1020.72
2022-10-31T09:17:01.086Z,1020.75
2022-10-31T09:18:01.424Z,1020.81
2022-10-31T09:19:01.107Z,1020.74
2022-10-31T09:20:01.129Z,1020.74
2022-10-31T09:21:01.591Z,1020.76
2022-10-31T09:22:01.218Z,1020.72
2022-10-31T09:23:00.912Z,1020.74
2022-10-31T09:24:01.134Z,1020.77
2022-10-31T09:25:01.128Z,1020.71
2022-10-31T09:26:01.177Z,1020.68
2022-10-31T09:27:01.166Z,1020.74
2022-10-31T09:28:01.498Z,1020.7
2022-10-31T09:29:01.447Z,1020.75
2022-10-31T09:30:01.451Z,1020.73
2022-10-31T09:31:01.999Z,1020.7
2022-10-31T09:32:02.278Z,1020.76
2022-10-31T09:33:01.087Z,1020.78
2022-10-31T09:34:01.148Z,1020.76
2022-10-31T09:35:01.249Z,1020.79
2022-10-31T09:36:04.977Z,1020.81
2022-10-31T09:37:01.535Z,1020.74
2022-10-31T09:38:02.235Z,1020.76
2022-10-31T09:39:02.173Z,1020.78
2022-10-31T09:40:04.517Z,1020.78
2022-10-31T09:41:07.689Z,1020.78
2022-10-31T09:42:01.154Z,1020.77
2022-10-31T09:43:01.327Z,1020.69
2022-10-31T09:44:01.109Z,1020.75
2022-10-31T09:45:01.071Z,1020.75
2022-10-31T09:46:10.716Z,1020.77
2022-10-31T09:47:01.367Z,1020.74
2022-10-31T09:48:02.121Z,1020.78
2022-10-31T09:49:01.208Z,1020.75
2022-10-31T09:50:01.115Z,1020.8
2022-10-31T09:51:13.599Z,1020.81
2022-10-31T09:52:01.854Z,1020.84
2022-10-31T09:53:01.541Z,1020.76
2022-10-31T09:54:01.428Z,1020.77
2022-10-31T09:55:02.596Z,1020.79
2022-10-31T09:56:16.069Z,1020.76
2022-10-31T09:57:01.217Z,1020.75
2022-10-31T09:58:01.315Z,1020.78
2022-10-31T09:59:01.154Z,1020.77
2022-10-31T10:00:01.079Z,1020.82
2022-10-31T10:01:01.195Z,1020.82
2022-10-31T10:02:01.246Z,1020.8
2022-10-31T10:03:02.251Z,1020.81
2022-10-31T10:04:01.344Z,1020.83
2022-10-31T10:05:01.393Z,1020.84
2022-10-31T10:06:01.345Z,1020.85
2022-10-31T10:07:01.118Z,1020.88
2022-10-31T10:08:01.129Z,1020.85
2022-10-31T10:09:01.118Z,1020.86
2022-10-31T10:10:01.132Z,1020.83
2022-10-31T10:11:01.139Z,1020.82
2022-10-31T10:12:01.502Z,1020.84
2022-10-31T10:13:03.467Z,1020.8
2022-10-31T10:14:01.977Z,1020.81
2022-10-31T10:15:02.134Z,1020.83
2022-10-31T10:16:01.297Z,1020.8
2022-10-31T10:17:01.071Z,1020.79
2022-10-31T10:18:01.060Z,1020.78
2022-10-31T10:19:01.078Z,1020.78
2022-10-31T10:20:01.105Z,1020.79
2022-10-31T10:21:01.101Z,1020.76
2022-10-31T10:22:01.114Z,1020.77
2022-10-31T10:23:01.458Z,1020.77
2022-10-31T10:24:01.248Z,1020.75
2022-10-31T10:25:02.017Z,1020.75
2022-10-31T10:26:01.774Z,1020.79
2022-10-31T10:27:01.518Z,1020.77
2022-10-31T10:28:02.038Z,1020.75
2022-10-31T10:29:02.950Z,1020.75
2022-10-31T10:30:01.121Z,1020.71
2022-10-31T10:31:01.073Z,1020.69
2022-10-31T10:32:01.749Z,1020.72
2022-10-31T10:33:01.887Z,1020.69
2022-10-31T10:34:01.913Z,1020.71
2022-10-31T10:35:01.204Z,1020.65
2022-10-31T10:36:01.393Z,1020.66
2022-10-31T10:37:00.952Z,1020.7
2022-10-31T10:38:01.514Z,1020.67
2022-10-31T10:39:01.122Z,1020.65
2022-10-31T10:40:01.127Z,1020.7
2022-10-31T10:41:01.797Z,1020.66
2022-10-31T10:42:01.393Z,1020.64
2022-10-31T10:43:02.146Z,1020.67
2022-10-31T10:44:01.748Z,1020.66
2022-10-31T10:45:01.154Z,1020.65
2022-10-31T10:46:01.157Z,1020.63
2022-10-31T10:47:01.153Z,1020.66
2022-10-31T10:48:01.355Z,1020.64
2022-10-31T10:49:01.099Z,1020.63
2022-10-31T10:50:01.078Z,1020.65
2022-10-31T10:51:01.071Z,1020.65
2022-10-31T10:52:19.517Z,1020.61
2022-10-31T10:53:01.221Z,1020.62
2022-10-31T10:54:04.205Z,1020.56
2022-10-31T10:55:01.482Z,1020.53
2022-10-31T10:56:00.489Z,1020.59
2022-10-31T10:57:00.185Z,1020.62
2022-10-31T10:58:00.421Z,1020.56
2022-10-31T10:59:00.323Z,1020.59
2022-10-31T11:00:00.007Z,1020.6
2022-10-31T11:01:00.018Z,1020.55
2022-10-31T11:02:00.113Z,1020.54
2022-10-31T11:03:00.058Z,1020.51
2022-10-31T11:03:59.825Z,1020.58
2022-10-31T11:05:01.864Z,1020.51
2022-10-31T11:06:01.059Z,1020.54
2022-10-31T11:07:01.066Z,1020.54
2022-10-31T11:08:01.046Z,1020.45
2022-10-31T11:09:01.087Z,1020.48
2022-10-31T11:10:01.111Z,1020.46
2022-10-31T11:11:01.121Z,1020.5
2022-10-31T11:12:01.599Z,1020.42
2022-10-31T11:13:02.265Z,1020.48
2022-10-31T11:14:02.033Z,1020.43
2022-10-31T11:15:01.330Z,1020.43
2022-10-31T11:16:01.053Z,1020.37
2022-10-31T11:17:01.140Z,1020.41
2022-10-31T11:18:01.144Z,1020.37
2022-10-31T11:19:01.052Z,1020.39
2022-10-31T11:20:01.088Z,1020.38
2022-10-31T11:21:01.072Z,1020.35
2022-10-31T11:22:01.893Z,1020.29
2022-10-31T11:23:01.073Z,1020.29
2022-10-31T11:24:01.094Z,1020.31
2022-10-31T11:25:01.906Z,1020.31
2022-10-31T11:26:01.392Z,1020.29
2022-10-31T11:27:05.572Z,1020.28
2022-10-31T11:28:01.214Z,1020.31
2022-10-31T11:29:01.194Z,1020.24
2022-10-31T11:30:01.548Z,1020.28
2022-10-31T11:31:01.140Z,1020.24
2022-10-31T11:32:08.163Z,1020.24
2022-10-31T11:33:01.610Z,1020.26
2022-10-31T11:34:01.304Z,1020.25
2022-10-31T11:35:02.614Z,1020.25
2022-10-31T11:36:01.065Z,1020.22
2022-10-31T11:37:11.450Z,1020.26
2022-10-31T11:38:02.540Z,1020.28
2022-10-31T11:39:02.194Z,1020.24
2022-10-31T11:40:01.088Z,1020.27
2022-10-31T11:41:01.115Z,1020.25
2022-10-31T11:42:13.922Z,1020.24
2022-10-31T11:43:01.112Z,1020.23
2022-10-31T11:44:01.139Z,1020.24
2022-10-31T11:45:02.931Z,1020.23
2022-10-31T11:46:01.040Z,1020.2
2022-10-31T11:47:15.355Z,1020.19
2022-10-31T11:48:01.931Z,1020.21
2022-10-31T11:49:02.161Z,1020.14
2022-10-31T11:50:01.433Z,1020.12
2022-10-31T11:51:01.816Z,1020.13
2022-10-31T11:52:01.069Z,1020.12
2022-10-31T11:53:01.144Z,1020.11
2022-10-31T11:54:03.015Z,1020.13
2022-10-31T11:55:01.505Z,1020.11
2022-10-31T11:56:01.190Z,1020.11
2022-10-31T11:57:07.231Z,1020.09
2022-10-31T11:58:01.537Z,1020.07
2022-10-31T11:59:01.129Z,1020.11
2022-10-31T12:00:01.129Z,1020.05
2022-10-31T12:01:01.135Z,1020.1
2022-10-31T12:02:02.022Z,1020.09
2022-10-31T12:03:01.955Z,1020.11
2022-10-31T12:04:01.165Z,1020.11
2022-10-31T12:05:01.408Z,1020.09
2022-10-31T12:06:01.415Z,1020.12
2022-10-31T12:07:01.409Z,1020.07
2022-10-31T12:08:04.503Z,1020.08